sensor_id;sensor_type;location;lat;lon;timestamp;temperature;humidity
7077;DHT22;3579;48.956;9.154;2023-04-16T00:00:11;18.00;50.80
7077;DHT22;3579;48.956;9.154;2023-04-16T00:02:37;18.10;50.90
7077;DHT22;3579;48.956;9.154;2023-04-16T00:05:04;18.00;50.80
7077;DHT22;3579;48.956;9.154;2023-04-16T00:07:30;18.10;50.90
7077;DHT22;3579;48.956;9.154;2023-04-16T00:09:56;18.00;50.80
7077;DHT22;3579;48.956;9.154;2023-04-16T00:12:22;18.00;50.80
7077;DHT22;3579;48.956;9.154;2023-04-16T00:14:48;18.00;50.90
7077;DHT22;3579;48.956;9.154;2023-04-16T00:17:14;18.00;50.90
7077;DHT22;3579;48.956;9.154;2023-04-16T00:19:40;18.00;50.90
7077;DHT22;3579;48.956;9.154;2023-04-16T00:22:06;18.00;50.90
7077;DHT22;3579;48.956;9.154;2023-04-16T00:24:32;18.00;50.90
7077;DHT22;3579;48.956;9.154;2023-04-16T00:26:58;18.00;50.90
7077;DHT22;3579;48.956;9.154;2023-04-16T00:29:24;18.00;50.90
7077;DHT22;3579;48.956;9.154;2023-04-16T00:31:52;18.00;51.00
7077;DHT22;3579;48.956;9.154;2023-04-16T00:34:18;17.90;50.90
7077;DHT22;3579;48.956;9.154;2023-04-16T00:36:44;18.00;51.00
7077;DHT22;3579;48.956;9.154;2023-04-16T00:39:10;18.00;51.00
7077;DHT22;3579;48.956;9.154;2023-04-16T00:41:37;18.00;51.00
7077;DHT22;3579;48.956;9.154;2023-04-16T00:44:03;17.90;51.00
7077;DHT22;3579;48.956;9.154;2023-04-16T00:46:29;17.90;51.00
7077;DHT22;3579;48.956;9.154;2023-04-16T00:48:56;18.00;51.00
7077;DHT22;3579;48.956;9.154;2023-04-16T00:51:22;17.90;51.00
7077;DHT22;3579;48.956;9.154;2023-04-16T00:53:48;17.90;51.00
7077;DHT22;3579;48.956;9.154;2023-04-16T00:56:15;17.90;51.00
7077;DHT22;3579;48.956;9.154;2023-04-16T00:58:41;17.90;51.00
7077;DHT22;3579;48.956;9.154;2023-04-16T01:01:07;17.90;51.00
7077;DHT22;3579;48.956;9.154;2023-04-16T01:03:43;17.90;51.00
7077;DHT22;3579;48.956;9.154;2023-04-16T01:06:11;17.90;51.00
7077;DHT22;3579;48.956;9.154;2023-04-16T01:08:37;17.90;51.00
7077;DHT22;3579;48.956;9.154;2023-04-16T01:11:03;17.90;51.10
7077;DHT22;3579;48.956;9.154;2023-04-16T01:13:30;17.90;51.00
7077;DHT22;3579;48.956;9.154;2023-04-16T01:15:56;17.90;51.10
7077;DHT22;3579;48.956;9.154;2023-04-16T01:18:23;17.80;51.00
7077;DHT22;3579;48.956;9.154;2023-04-16T01:20:49;17.90;51.10
7077;DHT22;3579;48.956;9.154;2023-04-16T01:23:16;17.90;51.10
7077;DHT22;3579;48.956;9.154;2023-04-16T01:25:46;17.90;51.10
7077;DHT22;3579;48.956;9.154;2023-04-16T01:28:12;17.90;51.10
7077;DHT22;3579;48.956;9.154;2023-04-16T01:30:38;17.90;51.10
7077;DHT22;3579;48.956;9.154;2023-04-16T01:33:04;17.80;51.00
7077;DHT22;3579;48.956;9.154;2023-04-16T01:35:31;17.80;51.10
7077;DHT22;3579;48.956;9.154;2023-04-16T01:37:57;17.90;51.20
7077;DHT22;3579;48.956;9.154;2023-04-16T01:40:23;17.80;51.10
7077;DHT22;3579;48.956;9.154;2023-04-16T01:42:49;17.70;51.00
7077;DHT22;3579;48.956;9.154;2023-04-16T01:45:16;17.80;51.10
7077;DHT22;3579;48.956;9.154;2023-04-16T01:47:42;17.80;51.10
7077;DHT22;3579;48.956;9.154;2023-04-16T01:50:09;17.80;51.10
7077;DHT22;3579;48.956;9.154;2023-04-16T01:52:35;17.80;51.10
7077;DHT22;3579;48.956;9.154;2023-04-16T01:55:01;17.80;51.20
7077;DHT22;3579;48.956;9.154;2023-04-16T01:57:28;17.80;51.20
7077;DHT22;3579;48.956;9.154;2023-04-16T01:59:54;17.80;51.20
7077;DHT22;3579;48.956;9.154;2023-04-16T02:02:20;17.80;51.20
7077;DHT22;3579;48.956;9.154;2023-04-16T02:04:50;17.80;51.20
7077;DHT22;3579;48.956;9.154;2023-04-16T02:07:16;17.80;51.20
7077;DHT22;3579;48.956;9.154;2023-04-16T02:09:42;17.90;51.30
7077;DHT22;3579;48.956;9.154;2023-04-16T02:12:09;17.70;51.10
7077;DHT22;3579;48.956;9.154;2023-04-16T02:14:36;17.80;51.20
7077;DHT22;3579;48.956;9.154;2023-04-16T02:17:02;17.80;51.20
7077;DHT22;3579;48.956;9.154;2023-04-16T02:19:29;17.70;51.20
7077;DHT22;3579;48.956;9.154;2023-04-16T02:21:55;17.70;51.20
7077;DHT22;3579;48.956;9.154;2023-04-16T02:24:21;17.80;51.20
7077;DHT22;3579;48.956;9.154;2023-04-16T02:26:47;17.70;51.20
7077;DHT22;3579;48.956;9.154;2023-04-16T02:29:13;17.70;51.20
7077;DHT22;3579;48.956;9.154;2023-04-16T02:31:39;17.70;51.20
7077;DHT22;3579;48.956;9.154;2023-04-16T02:34:05;17.70;51.20
7077;DHT22;3579;48.956;9.154;2023-04-16T02:36:31;17.70;51.20
7077;DHT22;3579;48.956;9.154;2023-04-16T02:38:58;17.70;51.20
7077;DHT22;3579;48.956;9.154;2023-04-16T02:41:24;17.70;51.20
7077;DHT22;3579;48.956;9.154;2023-04-16T02:43:50;17.70;51.20
7077;DHT22;3579;48.956;9.154;2023-04-16T02:46:16;17.80;51.30
7077;DHT22;3579;48.956;9.154;2023-04-16T02:48:42;17.70;51.20
7077;DHT22;3579;48.956;9.154;2023-04-16T02:51:08;17.80;51.40
7077;DHT22;3579;48.956;9.154;2023-04-16T02:53:34;17.70;51.30
7077;DHT22;3579;48.956;9.154;2023-04-16T02:56:00;17.70;51.30
7077;DHT22;3579;48.956;9.154;2023-04-16T02:58:26;17.60;51.20
7077;DHT22;3579;48.956;9.154;2023-04-16T03:00:53;17.60;51.20
7077;DHT22;3579;48.956;9.154;2023-04-16T03:03:19;17.70;51.30
7077;DHT22;3579;48.956;9.154;2023-04-16T03:05:46;17.70;51.40
7077;DHT22;3579;48.956;9.154;2023-04-16T03:08:12;17.70;51.40
7077;DHT22;3579;48.956;9.154;2023-04-16T03:10:38;17.70;51.40
7077;DHT22;3579;48.956;9.154;2023-04-16T03:13:04;17.60;51.30
7077;DHT22;3579;48.956;9.154;2023-04-16T03:15:30;17.60;51.30
7077;DHT22;3579;48.956;9.154;2023-04-16T03:17:56;17.60;51.30
7077;DHT22;3579;48.956;9.154;2023-04-16T03:20:23;17.60;51.60
7077;DHT22;3579;48.956;9.154;2023-04-16T03:22:49;17.60;51.30
7077;DHT22;3579;48.956;9.154;2023-04-16T03:25:17;17.60;51.30
7077;DHT22;3579;48.956;9.154;2023-04-16T03:27:44;17.60;51.30
7077;DHT22;3579;48.956;9.154;2023-04-16T03:30:10;17.60;51.40
7077;DHT22;3579;48.956;9.154;2023-04-16T03:32:37;17.60;51.40
7077;DHT22;3579;48.956;9.154;2023-04-16T03:35:04;17.70;51.50
7077;DHT22;3579;48.956;9.154;2023-04-16T03:37:31;17.60;51.40
7077;DHT22;3579;48.956;9.154;2023-04-16T03:39:57;17.60;51.40
7077;DHT22;3579;48.956;9.154;2023-04-16T03:42:23;17.60;51.40
7077;DHT22;3579;48.956;9.154;2023-04-16T03:44:49;17.60;51.40
7077;DHT22;3579;48.956;9.154;2023-04-16T03:47:16;17.60;51.40
7077;DHT22;3579;48.956;9.154;2023-04-16T03:49:42;17.60;51.40
7077;DHT22;3579;48.956;9.154;2023-04-16T03:52:07;17.60;51.40
7077;DHT22;3579;48.956;9.154;2023-04-16T03:54:33;17.60;51.40
7077;DHT22;3579;48.956;9.154;2023-04-16T03:56:59;17.60;51.40
7077;DHT22;3579;48.956;9.154;2023-04-16T03:59:25;17.60;51.40
7077;DHT22;3579;48.956;9.154;2023-04-16T04:01:51;17.60;51.40
7077;DHT22;3579;48.956;9.154;2023-04-16T04:04:17;17.60;51.50
7077;DHT22;3579;48.956;9.154;2023-04-16T04:06:46;17.50;51.30
7077;DHT22;3579;48.956;9.154;2023-04-16T04:09:13;17.60;51.50
7077;DHT22;3579;48.956;9.154;2023-04-16T04:11:39;17.60;51.40
7077;DHT22;3579;48.956;9.154;2023-04-16T04:14:06;17.60;51.50
7077;DHT22;3579;48.956;9.154;2023-04-16T04:16:32;17.60;51.50
7077;DHT22;3579;48.956;9.154;2023-04-16T04:18:58;17.60;51.50
7077;DHT22;3579;48.956;9.154;2023-04-16T04:21:26;17.50;51.40
7077;DHT22;3579;48.956;9.154;2023-04-16T04:23:53;17.50;51.40
7077;DHT22;3579;48.956;9.154;2023-04-16T04:26:19;17.50;51.40
7077;DHT22;3579;48.956;9.154;2023-04-16T04:28:46;17.60;51.50
7077;DHT22;3579;48.956;9.154;2023-04-16T04:31:12;17.50;51.40
7077;DHT22;3579;48.956;9.154;2023-04-16T04:33:38;17.50;51.40
7077;DHT22;3579;48.956;9.154;2023-04-16T04:36:05;17.50;51.40
7077;DHT22;3579;48.956;9.154;2023-04-16T04:38:31;17.50;51.40
7077;DHT22;3579;48.956;9.154;2023-04-16T04:40:58;17.50;51.40
7077;DHT22;3579;48.956;9.154;2023-04-16T04:43:24;17.60;51.60
7077;DHT22;3579;48.956;9.154;2023-04-16T04:45:50;17.50;51.40
7077;DHT22;3579;48.956;9.154;2023-04-16T04:48:16;17.50;51.50
7077;DHT22;3579;48.956;9.154;2023-04-16T04:50:43;17.50;51.50
7077;DHT22;3579;48.956;9.154;2023-04-16T04:53:10;17.50;51.50
7077;DHT22;3579;48.956;9.154;2023-04-16T04:55:37;17.50;51.60
7077;DHT22;3579;48.956;9.154;2023-04-16T04:58:06;17.50;51.50
7077;DHT22;3579;48.956;9.154;2023-04-16T05:00:33;17.50;51.50
7077;DHT22;3579;48.956;9.154;2023-04-16T05:03:05;17.50;51.60
7077;DHT22;3579;48.956;9.154;2023-04-16T05:05:31;17.50;51.60
7077;DHT22;3579;48.956;9.154;2023-04-16T05:07:57;17.50;51.60
7077;DHT22;3579;48.956;9.154;2023-04-16T05:10:23;17.40;51.50
7077;DHT22;3579;48.956;9.154;2023-04-16T05:12:49;17.40;51.50
7077;DHT22;3579;48.956;9.154;2023-04-16T05:15:15;17.40;51.50
7077;DHT22;3579;48.956;9.154;2023-04-16T05:17:41;17.40;51.60
7077;DHT22;3579;48.956;9.154;2023-04-16T05:20:08;17.40;51.50
7077;DHT22;3579;48.956;9.154;2023-04-16T05:22:34;17.40;51.50
7077;DHT22;3579;48.956;9.154;2023-04-16T05:25:00;17.40;51.50
7077;DHT22;3579;48.956;9.154;2023-04-16T05:27:26;17.40;51.50
7077;DHT22;3579;48.956;9.154;2023-04-16T05:29:52;17.50;51.60
7077;DHT22;3579;48.956;9.154;2023-04-16T05:32:18;17.40;51.50
7077;DHT22;3579;48.956;9.154;2023-04-16T05:34:44;17.50;51.60
7077;DHT22;3579;48.956;9.154;2023-04-16T05:37:10;17.50;51.60
7077;DHT22;3579;48.956;9.154;2023-04-16T05:39:36;17.40;51.50
7077;DHT22;3579;48.956;9.154;2023-04-16T05:42:02;17.40;51.50
7077;DHT22;3579;48.956;9.154;2023-04-16T05:44:28;17.40;51.50
7077;DHT22;3579;48.956;9.154;2023-04-16T05:46:55;17.50;51.60
7077;DHT22;3579;48.956;9.154;2023-04-16T05:49:21;17.40;51.50
7077;DHT22;3579;48.956;9.154;2023-04-16T05:51:47;17.40;51.50
7077;DHT22;3579;48.956;9.154;2023-04-16T05:54:13;17.40;51.50
7077;DHT22;3579;48.956;9.154;2023-04-16T05:56:39;17.50;51.60
7077;DHT22;3579;48.956;9.154;2023-04-16T05:59:05;17.50;51.60
7077;DHT22;3579;48.956;9.154;2023-04-16T06:01:32;17.50;51.60
7077;DHT22;3579;48.956;9.154;2023-04-16T06:03:58;17.40;51.50
7077;DHT22;3579;48.956;9.154;2023-04-16T06:06:24;17.50;51.50
7077;DHT22;3579;48.956;9.154;2023-04-16T06:08:52;17.50;51.50
7077;DHT22;3579;48.956;9.154;2023-04-16T06:11:18;17.50;51.50
7077;DHT22;3579;48.956;9.154;2023-04-16T06:13:44;17.50;51.50
7077;DHT22;3579;48.956;9.154;2023-04-16T06:16:10;17.50;51.50
7077;DHT22;3579;48.956;9.154;2023-04-16T06:18:36;17.50;51.50
7077;DHT22;3579;48.956;9.154;2023-04-16T06:21:03;17.60;51.50
7077;DHT22;3579;48.956;9.154;2023-04-16T06:23:29;17.50;51.40
7077;DHT22;3579;48.956;9.154;2023-04-16T06:25:55;17.50;51.50
7077;DHT22;3579;48.956;9.154;2023-04-16T06:28:21;17.50;51.50
7077;DHT22;3579;48.956;9.154;2023-04-16T06:30:47;17.40;51.40
7077;DHT22;3579;48.956;9.154;2023-04-16T06:33:13;17.50;51.50
7077;DHT22;3579;48.956;9.154;2023-04-16T06:35:39;17.50;51.50
7077;DHT22;3579;48.956;9.154;2023-04-16T06:38:05;17.50;51.50
7077;DHT22;3579;48.956;9.154;2023-04-16T06:40:31;17.50;51.50
7077;DHT22;3579;48.956;9.154;2023-04-16T06:42:57;17.40;51.40
7077;DHT22;3579;48.956;9.154;2023-04-16T06:45:23;17.50;51.50
7077;DHT22;3579;48.956;9.154;2023-04-16T06:47:49;17.50;51.50
7077;DHT22;3579;48.956;9.154;2023-04-16T06:50:17;17.50;51.50
7077;DHT22;3579;48.956;9.154;2023-04-16T06:52:43;17.50;51.50
7077;DHT22;3579;48.956;9.154;2023-04-16T06:55:09;17.50;51.50
7077;DHT22;3579;48.956;9.154;2023-04-16T06:57:35;17.50;51.50
7077;DHT22;3579;48.956;9.154;2023-04-16T07:00:02;17.50;51.50
7077;DHT22;3579;48.956;9.154;2023-04-16T07:02:29;17.50;51.40
7077;DHT22;3579;48.956;9.154;2023-04-16T07:04:55;17.50;51.40
7077;DHT22;3579;48.956;9.154;2023-04-16T07:07:22;17.50;51.40
7077;DHT22;3579;48.956;9.154;2023-04-16T07:09:48;17.50;51.40
7077;DHT22;3579;48.956;9.154;2023-04-16T07:12:14;17.50;51.40
7077;DHT22;3579;48.956;9.154;2023-04-16T07:14:40;17.50;51.40
7077;DHT22;3579;48.956;9.154;2023-04-16T07:17:06;17.50;51.40
7077;DHT22;3579;48.956;9.154;2023-04-16T07:19:32;17.50;51.30
7077;DHT22;3579;48.956;9.154;2023-04-16T07:21:59;17.60;51.40
7077;DHT22;3579;48.956;9.154;2023-04-16T07:24:25;17.60;51.30
7077;DHT22;3579;48.956;9.154;2023-04-16T07:26:51;17.60;51.30
7077;DHT22;3579;48.956;9.154;2023-04-16T07:29:17;17.60;51.30
7077;DHT22;3579;48.956;9.154;2023-04-16T07:31:44;17.60;51.30
7077;DHT22;3579;48.956;9.154;2023-04-16T07:34:10;17.60;51.30
7077;DHT22;3579;48.956;9.154;2023-04-16T07:36:36;17.60;51.30
7077;DHT22;3579;48.956;9.154;2023-04-16T07:39:03;17.60;51.30
7077;DHT22;3579;48.956;9.154;2023-04-16T07:41:29;17.60;51.30
7077;DHT22;3579;48.956;9.154;2023-04-16T07:43:55;17.60;51.30
7077;DHT22;3579;48.956;9.154;2023-04-16T07:46:22;17.50;51.30
7077;DHT22;3579;48.956;9.154;2023-04-16T07:48:48;17.50;51.30
7077;DHT22;3579;48.956;9.154;2023-04-16T07:51:14;17.60;51.30
7077;DHT22;3579;48.956;9.154;2023-04-16T07:53:40;17.60;51.30
7077;DHT22;3579;48.956;9.154;2023-04-16T07:56:08;17.50;51.20
7077;DHT22;3579;48.956;9.154;2023-04-16T07:58:34;17.20;51.50
7077;DHT22;3579;48.956;9.154;2023-04-16T08:01:00;17.60;51.40
7077;DHT22;3579;48.956;9.154;2023-04-16T08:03:26;17.60;51.40
7077;DHT22;3579;48.956;9.154;2023-04-16T08:05:53;17.50;51.30
7077;DHT22;3579;48.956;9.154;2023-04-16T08:08:18;17.50;51.30
7077;DHT22;3579;48.956;9.154;2023-04-16T08:10:45;17.50;51.30
7077;DHT22;3579;48.956;9.154;2023-04-16T08:13:11;17.60;51.40
7077;DHT22;3579;48.956;9.154;2023-04-16T08:15:37;17.50;51.30
7077;DHT22;3579;48.956;9.154;2023-04-16T08:18:03;17.50;51.30
7077;DHT22;3579;48.956;9.154;2023-04-16T08:20:30;17.50;51.30
7077;DHT22;3579;48.956;9.154;2023-04-16T08:22:57;17.50;51.30
7077;DHT22;3579;48.956;9.154;2023-04-16T08:25:23;17.50;51.30
7077;DHT22;3579;48.956;9.154;2023-04-16T08:27:49;17.50;51.30
7077;DHT22;3579;48.956;9.154;2023-04-16T08:30:15;17.60;51.40
7077;DHT22;3579;48.956;9.154;2023-04-16T08:32:42;17.60;51.40
7077;DHT22;3579;48.956;9.154;2023-04-16T08:35:08;17.60;51.30
7077;DHT22;3579;48.956;9.154;2023-04-16T08:37:34;17.60;51.30
7077;DHT22;3579;48.956;9.154;2023-04-16T08:40:01;17.60;51.30
7077;DHT22;3579;48.956;9.154;2023-04-16T08:42:32;17.60;51.80
7077;DHT22;3579;48.956;9.154;2023-04-16T08:45:16;17.60;51.20
7077;DHT22;3579;48.956;9.154;2023-04-16T08:47:50;17.60;51.20
7077;DHT22;3579;48.956;9.154;2023-04-16T08:50:24;17.60;51.20
7077;DHT22;3579;48.956;9.154;2023-04-16T08:52:52;17.60;51.20
7077;DHT22;3579;48.956;9.154;2023-04-16T08:55:22;17.60;51.10
7077;DHT22;3579;48.956;9.154;2023-04-16T08:57:57;17.70;51.20
7077;DHT22;3579;48.956;9.154;2023-04-16T09:00:23;17.70;51.10
7077;DHT22;3579;48.956;9.154;2023-04-16T09:02:50;17.70;51.10
7077;DHT22;3579;48.956;9.154;2023-04-16T09:05:17;17.70;51.10
7077;DHT22;3579;48.956;9.154;2023-04-16T09:07:46;17.70;51.10
7077;DHT22;3579;48.956;9.154;2023-04-16T09:10:14;17.70;51.00
7077;DHT22;3579;48.956;9.154;2023-04-16T09:12:41;17.70;51.00
7077;DHT22;3579;48.956;9.154;2023-04-16T09:15:09;17.70;51.00
7077;DHT22;3579;48.956;9.154;2023-04-16T09:17:36;17.70;51.00
7077;DHT22;3579;48.956;9.154;2023-04-16T09:20:06;17.70;51.00
7077;DHT22;3579;48.956;9.154;2023-04-16T09:22:36;17.70;51.00
7077;DHT22;3579;48.956;9.154;2023-04-16T09:25:03;17.70;51.00
7077;DHT22;3579;48.956;9.154;2023-04-16T09:27:29;17.70;51.00
7077;DHT22;3579;48.956;9.154;2023-04-16T09:29:55;17.70;51.00
7077;DHT22;3579;48.956;9.154;2023-04-16T09:32:26;17.70;51.00
7077;DHT22;3579;48.956;9.154;2023-04-16T09:34:59;17.70;51.00
7077;DHT22;3579;48.956;9.154;2023-04-16T09:37:27;17.70;51.00
7077;DHT22;3579;48.956;9.154;2023-04-16T09:40:02;17.70;51.10
7077;DHT22;3579;48.956;9.154;2023-04-16T09:42:35;17.70;51.10
7077;DHT22;3579;48.956;9.154;2023-04-16T09:45:02;17.70;51.10
7077;DHT22;3579;48.956;9.154;2023-04-16T09:47:42;17.70;51.10
7077;DHT22;3579;48.956;9.154;2023-04-16T09:50:09;17.70;51.20
7077;DHT22;3579;48.956;9.154;2023-04-16T09:52:38;17.70;51.10
7077;DHT22;3579;48.956;9.154;2023-04-16T09:55:05;17.70;51.20
7077;DHT22;3579;48.956;9.154;2023-04-16T09:57:31;17.70;51.20
7077;DHT22;3579;48.956;9.154;2023-04-16T10:00:03;17.60;51.10
7077;DHT22;3579;48.956;9.154;2023-04-16T10:02:30;17.70;51.20
7077;DHT22;3579;48.956;9.154;2023-04-16T10:04:56;17.70;51.20
7077;DHT22;3579;48.956;9.154;2023-04-16T10:07:27;17.70;51.10
7077;DHT22;3579;48.956;9.154;2023-04-16T10:09:53;17.70;51.10
7077;DHT22;3579;48.956;9.154;2023-04-16T10:12:20;17.70;51.10
7077;DHT22;3579;48.956;9.154;2023-04-16T10:14:46;17.70;51.10
7077;DHT22;3579;48.956;9.154;2023-04-16T10:17:13;17.70;51.10
7077;DHT22;3579;48.956;9.154;2023-04-16T10:19:39;17.70;51.10
7077;DHT22;3579;48.956;9.154;2023-04-16T10:22:05;17.70;51.10
7077;DHT22;3579;48.956;9.154;2023-04-16T10:24:32;17.70;51.10
7077;DHT22;3579;48.956;9.154;2023-04-16T10:26:59;17.70;51.10
7077;DHT22;3579;48.956;9.154;2023-04-16T10:29:27;17.70;51.10
7077;DHT22;3579;48.956;9.154;2023-04-16T10:31:54;17.70;51.10
7077;DHT22;3579;48.956;9.154;2023-04-16T10:34:22;17.70;51.10
7077;DHT22;3579;48.956;9.154;2023-04-16T10:36:49;17.70;51.10
7077;DHT22;3579;48.956;9.154;2023-04-16T10:39:22;17.70;51.10
7077;DHT22;3579;48.956;9.154;2023-04-16T10:41:50;17.70;51.10
7077;DHT22;3579;48.956;9.154;2023-04-16T10:44:30;17.70;51.10
7077;DHT22;3579;48.956;9.154;2023-04-16T10:46:58;17.70;51.10
7077;DHT22;3579;48.956;9.154;2023-04-16T10:49:25;17.70;51.20
7077;DHT22;3579;48.956;9.154;2023-04-16T10:51:55;17.70;51.20
7077;DHT22;3579;48.956;9.154;2023-04-16T10:54:31;17.70;51.20
7077;DHT22;3579;48.956;9.154;2023-04-16T10:57:04;17.70;51.10
7077;DHT22;3579;48.956;9.154;2023-04-16T10:59:33;17.70;51.10
7077;DHT22;3579;48.956;9.154;2023-04-16T11:02:13;17.70;51.10
7077;DHT22;3579;48.956;9.154;2023-04-16T11:04:45;17.70;51.10
7077;DHT22;3579;48.956;9.154;2023-04-16T11:07:14;17.70;51.10
7077;DHT22;3579;48.956;9.154;2023-04-16T11:12:35;17.70;51.10
7077;DHT22;3579;48.956;9.154;2023-04-16T11:15:12;17.70;51.10
7077;DHT22;3579;48.956;9.154;2023-04-16T11:17:49;17.70;51.10
7077;DHT22;3579;48.956;9.154;2023-04-16T11:20:21;17.70;51.10
7077;DHT22;3579;48.956;9.154;2023-04-16T11:22:48;17.70;51.10
7077;DHT22;3579;48.956;9.154;2023-04-16T11:25:21;17.70;51.10
7077;DHT22;3579;48.956;9.154;2023-04-16T11:27:48;17.70;51.20
7077;DHT22;3579;48.956;9.154;2023-04-16T11:30:14;17.60;51.10
7077;DHT22;3579;48.956;9.154;2023-04-16T11:32:40;17.70;51.20
7077;DHT22;3579;48.956;9.154;2023-04-16T11:35:17;17.60;51.10
7077;DHT22;3579;48.956;9.154;2023-04-16T11:37:44;17.70;51.20
7077;DHT22;3579;48.956;9.154;2023-04-16T11:40:11;17.70;51.20
7077;DHT22;3579;48.956;9.154;2023-04-16T11:42:39;17.70;51.20
7077;DHT22;3579;48.956;9.154;2023-04-16T11:45:06;17.70;51.10
7077;DHT22;3579;48.956;9.154;2023-04-16T11:47:48;17.70;51.10
7077;DHT22;3579;48.956;9.154;2023-04-16T11:50:22;17.70;51.00
7077;DHT22;3579;48.956;9.154;2023-04-16T11:52:49;17.70;51.00
7077;DHT22;3579;48.956;9.154;2023-04-16T11:55:16;17.70;51.00
7077;DHT22;3579;48.956;9.154;2023-04-16T11:57:42;17.30;51.20
7077;DHT22;3579;48.956;9.154;2023-04-16T12:00:09;17.70;51.00
7077;DHT22;3579;48.956;9.154;2023-04-16T12:02:49;17.70;51.00
7077;DHT22;3579;48.956;9.154;2023-04-16T12:05:30;17.70;51.00
7077;DHT22;3579;48.956;9.154;2023-04-16T12:07:57;17.70;51.00
7077;DHT22;3579;48.956;9.154;2023-04-16T12:10:24;17.70;51.00
7077;DHT22;3579;48.956;9.154;2023-04-16T12:12:50;17.70;51.00
7077;DHT22;3579;48.956;9.154;2023-04-16T12:15:16;17.70;51.00
7077;DHT22;3579;48.956;9.154;2023-04-16T12:17:43;17.70;51.00
7077;DHT22;3579;48.956;9.154;2023-04-16T12:20:13;17.70;51.00
7077;DHT22;3579;48.956;9.154;2023-04-16T12:22:46;17.70;51.00
7077;DHT22;3579;48.956;9.154;2023-04-16T12:25:16;17.70;51.00
7077;DHT22;3579;48.956;9.154;2023-04-16T12:27:53;17.70;51.00
7077;DHT22;3579;48.956;9.154;2023-04-16T12:30:22;17.70;51.00
7077;DHT22;3579;48.956;9.154;2023-04-16T12:32:50;17.70;51.00
7077;DHT22;3579;48.956;9.154;2023-04-16T12:35:32;17.70;51.00
7077;DHT22;3579;48.956;9.154;2023-04-16T12:37:59;17.70;51.00
7077;DHT22;3579;48.956;9.154;2023-04-16T12:40:25;17.70;51.00
7077;DHT22;3579;48.956;9.154;2023-04-16T12:42:52;17.70;51.00
7077;DHT22;3579;48.956;9.154;2023-04-16T12:45:18;17.70;51.50
7077;DHT22;3579;48.956;9.154;2023-04-16T12:47:44;17.70;51.00
7077;DHT22;3579;48.956;9.154;2023-04-16T12:50:10;17.70;51.00
7077;DHT22;3579;48.956;9.154;2023-04-16T12:52:36;17.70;51.00
7077;DHT22;3579;48.956;9.154;2023-04-16T12:55:03;17.70;51.00
7077;DHT22;3579;48.956;9.154;2023-04-16T12:57:29;17.70;51.00
7077;DHT22;3579;48.956;9.154;2023-04-16T12:59:56;17.70;51.00
7077;DHT22;3579;48.956;9.154;2023-04-16T13:02:23;17.70;51.00
7077;DHT22;3579;48.956;9.154;2023-04-16T13:04:50;17.70;51.00
7077;DHT22;3579;48.956;9.154;2023-04-16T13:07:17;17.80;51.00
7077;DHT22;3579;48.956;9.154;2023-04-16T13:09:43;17.70;51.50
7077;DHT22;3579;48.956;9.154;2023-04-16T13:12:10;17.80;51.00
7077;DHT22;3579;48.956;9.154;2023-04-16T13:14:36;17.80;51.00
7077;DHT22;3579;48.956;9.154;2023-04-16T13:17:02;17.80;51.00
7077;DHT22;3579;48.956;9.154;2023-04-16T13:19:29;17.80;50.90
7077;DHT22;3579;48.956;9.154;2023-04-16T13:21:56;17.80;51.00
7077;DHT22;3579;48.956;9.154;2023-04-16T13:24:22;17.80;50.80
7077;DHT22;3579;48.956;9.154;2023-04-16T13:26:49;17.80;50.80
7077;DHT22;3579;48.956;9.154;2023-04-16T13:29:15;17.90;50.80
7077;DHT22;3579;48.956;9.154;2023-04-16T13:31:41;17.80;50.80
7077;DHT22;3579;48.956;9.154;2023-04-16T13:34:07;17.80;50.70
7077;DHT22;3579;48.956;9.154;2023-04-16T13:36:33;17.90;50.80
7077;DHT22;3579;48.956;9.154;2023-04-16T13:38:59;17.90;50.80
7077;DHT22;3579;48.956;9.154;2023-04-16T13:41:25;17.90;50.70
7077;DHT22;3579;48.956;9.154;2023-04-16T13:43:52;17.90;50.70
7077;DHT22;3579;48.956;9.154;2023-04-16T13:46:19;17.90;50.70
7077;DHT22;3579;48.956;9.154;2023-04-16T13:48:45;17.90;50.70
7077;DHT22;3579;48.956;9.154;2023-04-16T13:51:11;17.90;50.70
7077;DHT22;3579;48.956;9.154;2023-04-16T13:53:40;17.90;50.80
7077;DHT22;3579;48.956;9.154;2023-04-16T13:56:06;17.80;50.70
7077;DHT22;3579;48.956;9.154;2023-04-16T13:58:32;17.80;50.70
7077;DHT22;3579;48.956;9.154;2023-04-16T14:00:58;17.80;50.80
7077;DHT22;3579;48.956;9.154;2023-04-16T14:03:25;17.80;50.80
7077;DHT22;3579;48.956;9.154;2023-04-16T14:05:54;17.80;50.80
7077;DHT22;3579;48.956;9.154;2023-04-16T14:08:19;17.80;50.80
7077;DHT22;3579;48.956;9.154;2023-04-16T14:10:49;17.80;50.80
7077;DHT22;3579;48.956;9.154;2023-04-16T14:13:15;17.80;50.80
7077;DHT22;3579;48.956;9.154;2023-04-16T14:15:41;17.80;50.90
7077;DHT22;3579;48.956;9.154;2023-04-16T14:18:07;17.80;50.80
7077;DHT22;3579;48.956;9.154;2023-04-16T14:20:33;17.80;50.90
7077;DHT22;3579;48.956;9.154;2023-04-16T14:22:59;17.80;50.90
7077;DHT22;3579;48.956;9.154;2023-04-16T14:25:25;17.80;50.90
7077;DHT22;3579;48.956;9.154;2023-04-16T14:27:51;17.80;50.90
7077;DHT22;3579;48.956;9.154;2023-04-16T14:30:18;17.80;50.90
7077;DHT22;3579;48.956;9.154;2023-04-16T14:32:44;17.80;51.00
7077;DHT22;3579;48.956;9.154;2023-04-16T14:35:10;17.80;51.00
7077;DHT22;3579;48.956;9.154;2023-04-16T14:37:36;17.80;51.00
7077;DHT22;3579;48.956;9.154;2023-04-16T14:40:04;17.70;50.90
7077;DHT22;3579;48.956;9.154;2023-04-16T14:42:33;18.70;51.70
7077;DHT22;3579;48.956;9.154;2023-04-16T14:44:59;17.80;51.00
7077;DHT22;3579;48.956;9.154;2023-04-16T14:47:25;17.70;51.00
7077;DHT22;3579;48.956;9.154;2023-04-16T14:49:51;17.70;51.00
7077;DHT22;3579;48.956;9.154;2023-04-16T14:52:17;17.70;51.00
7077;DHT22;3579;48.956;9.154;2023-04-16T14:54:43;17.70;51.00
7077;DHT22;3579;48.956;9.154;2023-04-16T14:57:09;17.70;51.00
7077;DHT22;3579;48.956;9.154;2023-04-16T14:59:35;17.70;51.00
7077;DHT22;3579;48.956;9.154;2023-04-16T15:02:01;17.70;51.00
7077;DHT22;3579;48.956;9.154;2023-04-16T15:04:28;17.70;51.50
7077;DHT22;3579;48.956;9.154;2023-04-16T15:06:54;17.70;51.00
7077;DHT22;3579;48.956;9.154;2023-04-16T15:09:25;17.70;51.00
7077;DHT22;3579;48.956;9.154;2023-04-16T15:11:52;17.70;51.00
7077;DHT22;3579;48.956;9.154;2023-04-16T15:14:18;17.70;51.00
7077;DHT22;3579;48.956;9.154;2023-04-16T15:16:45;17.70;51.00
7077;DHT22;3579;48.956;9.154;2023-04-16T15:19:12;17.70;51.00
7077;DHT22;3579;48.956;9.154;2023-04-16T15:21:38;17.70;51.00
7077;DHT22;3579;48.956;9.154;2023-04-16T15:24:05;17.70;51.00
7077;DHT22;3579;48.956;9.154;2023-04-16T15:26:31;17.70;51.00
7077;DHT22;3579;48.956;9.154;2023-04-16T15:28:57;17.70;51.10
7077;DHT22;3579;48.956;9.154;2023-04-16T15:31:23;17.70;51.10
7077;DHT22;3579;48.956;9.154;2023-04-16T15:33:49;17.70;51.20
7077;DHT22;3579;48.956;9.154;2023-04-16T15:36:15;17.70;51.20
7077;DHT22;3579;48.956;9.154;2023-04-16T15:38:41;17.60;51.10
7077;DHT22;3579;48.956;9.154;2023-04-16T15:41:08;17.70;51.20
7077;DHT22;3579;48.956;9.154;2023-04-16T15:43:34;17.60;51.10
7077;DHT22;3579;48.956;9.154;2023-04-16T15:46:00;17.60;51.10
7077;DHT22;3579;48.956;9.154;2023-04-16T15:48:26;17.70;51.20
7077;DHT22;3579;48.956;9.154;2023-04-16T15:50:53;17.70;51.20
7077;DHT22;3579;48.956;9.154;2023-04-16T15:53:20;17.60;51.20
7077;DHT22;3579;48.956;9.154;2023-04-16T15:55:46;17.60;51.10
7077;DHT22;3579;48.956;9.154;2023-04-16T15:58:14;17.60;51.20
7077;DHT22;3579;48.956;9.154;2023-04-16T16:00:40;17.60;51.10
7077;DHT22;3579;48.956;9.154;2023-04-16T16:03:06;17.60;51.20